Humboldt, Canada
Current Conditions -  °F | °C
As of 9:00 AM on Saturday 25 Oct 2014 (Local Time) from CYXE Reporting Station
Scattered Clouds Scattered Clouds  
Wind Chill: 22°   Ceiling: Unl
Heat Index: 28°   Visibility: 15mi
Dew Point: 25°   Wind: 6mph
Humidity: 86%   Direction: 240°WSW
Pressure: 30.06"   Gusts: NA
Location:  52.2°N, 105.12°W
Report Text: CYXE 251500Z 24005KT 15SM SCT240 M02/M04 A3006 RMK CI3 SLP205
Loading
Personal Weather Stations






























Interactive Weather Map
Tropical Storm Tracking
New forecast layout! Learn more

10-Day Weather Forecast

Advertisements
Track Severe Weather on mobile